Аэропорт
Камрань (VVCR)

 VVCR / CXR

Viet Nam
VN-34
Камрань
 11.99820, 109.21900  / 40 ft

 VVCR 182300Z 23009KT 9999 FEW015 SCT050 28/25 Q1007 NOSIG
 TAF VVCR 181700Z 1818/1918 24012KT 9999 SCT015 SCT050 TEMPO 1820/1902 4000 RA

2020 © VATRUS division (Privacy Policy)